Time;durP1;ratioP1;P1;durP2;ratioP2;P2;SDS_P1;SDS_P2;PMS_P1;PMS_P2;Temp;Humidity;BMP_temperature;BMP_pressure;BME280_temperature;BME280_humidity;BME280_pressure;Samples;Min_cycle;Max_cycle;Signal;HPM_P1;HPM_P2
2022/10/12 00:02:19;;;;;;;;;;;20.80;43.40;19.60;102187.00;;;;5084819;28;19978;-66
2022/10/12 00:05:05;;;;;;;;;;;20.80;43.50;19.60;102188.00;;;;5078186;28;19916;-66
2022/10/12 00:07:51;;;;;;;;;;;20.80;43.40;19.60;102187.00;;;;5087200;28;19923;-66
2022/10/12 00:10:40;;;;;;;;;;;20.80;43.50;19.60;102191.00;;;;5084811;28;19920;-66
2022/10/12 00:13:26;;;;;;;;;;;20.80;43.50;19.60;102185.00;;;;5096221;27;20851;-66
2022/10/12 00:16:13;;;;;;;;;;;20.80;43.40;19.50;102186.00;;;;5095518;27;19923;-66
2022/10/12 00:18:59;;;;;;;;;;;20.80;43.40;19.50;102178.00;;;;5084366;28;20364;-66
2022/10/12 00:21:45;;;;;;;;;;;20.80;43.40;19.50;102187.00;;;;5086710;28;19924;-66
2022/10/12 00:24:31;;;;;;;;;;;20.80;43.40;19.50;102188.00;;;;5083681;28;19923;-66
2022/10/12 00:27:17;;;;;;;;;;;20.80;43.40;19.50;102186.00;;;;5087658;28;19923;-66
2022/10/12 00:30:03;;;;;;;;;;;20.80;43.40;19.50;102175.00;;;;5082473;28;19920;-66
2022/10/12 00:32:49;;;;;;;;;;;20.80;43.40;19.50;102187.00;;;;5086542;28;19916;-66
2022/10/12 00:35:38;;;;;;;;;;;20.80;43.40;19.50;102182.00;;;;5084451;28;19924;-66
2022/10/12 00:38:24;;;;;;;;;;;20.80;43.40;19.50;102183.00;;;;5086849;28;20289;-66
2022/10/12 00:41:11;;;;;;;;;;;20.70;43.40;19.50;102188.00;;;;5095290;27;20305;-66
2022/10/12 00:43:57;;;;;;;;;;;20.70;43.30;19.50;102176.00;;;;5082167;28;19946;-66
2022/10/12 00:46:43;;;;;;;;;;;20.70;43.30;19.50;102179.00;;;;5082377;28;19941;-66
2022/10/12 00:49:29;;;;;;;;;;;20.70;43.30;19.50;102181.00;;;;5094975;28;19998;-66
2022/10/12 00:52:16;;;;;;;;;;;20.70;43.40;19.50;102174.00;;;;5070629;28;20380;-66
2022/10/12 00:55:02;;;;;;;;;;;20.70;43.30;19.50;102186.00;;;;5082434;28;20085;-67
2022/10/12 00:57:48;;;;;;;;;;;20.70;43.30;19.50;102182.00;;;;5113226;27;20364;-66
2022/10/12 01:00:34;;;;;;;;;;;20.70;43.40;19.50;102185.00;;;;5111637;27;19957;-66
2022/10/12 01:03:20;;;;;;;;;;;20.70;43.30;19.50;102178.00;;;;5085948;28;20403;-66
2022/10/12 01:06:06;;;;;;;;;;;20.70;43.30;19.40;102188.00;;;;5103935;28;20377;-66
2022/10/12 01:08:53;;;;;;;;;;;20.70;43.30;19.40;102176.00;;;;5113008;27;19937;-66
2022/10/12 01:11:39;;;;;;;;;;;20.70;43.30;19.40;102182.00;;;;5096368;28;19923;-66
2022/10/12 01:14:25;;;;;;;;;;;20.70;43.30;19.40;102171.00;;;;5104632;27;19920;-66
2022/10/12 01:17:49;;;;;;;;;;;20.70;43.30;19.40;102183.00;;;;5087629;28;19920;-66
2022/10/12 01:20:50;;;;;;;;;;;20.70;43.30;19.40;102184.00;;;;5081345;28;20281;-66
2022/10/12 01:23:42;;;;;;;;;;;20.60;43.50;19.40;102171.00;;;;5101990;28;20296;-66
2022/10/12 01:26:43;;;;;;;;;;;20.70;43.30;19.40;102181.00;;;;5079677;28;19920;-66
2022/10/12 01:29:54;;;;;;;;;;;20.60;43.20;19.40;102181.00;;;;5093322;28;19928;-66
2022/10/12 01:32:43;;;;;;;;;;;20.60;43.20;19.40;102176.00;;;;5078359;28;19916;-66
2022/10/12 01:35:54;;;;;;;;;;;20.60;43.20;19.40;102178.00;;;;5077855;28;19970;-66
2022/10/12 01:39:08;;;;;;;;;;;20.60;43.20;19.40;102171.00;;;;5085216;28;19919;-67
2022/10/12 01:41:55;;;;;;;;;;;20.60;43.20;19.40;102166.00;;;;5080521;28;20397;-66
2022/10/12 01:44:41;;;;;;;;;;;20.60;43.20;19.40;102163.00;;;;5079140;28;19920;-66
2022/10/12 01:47:27;;;;;;;;;;;20.60;43.20;19.40;102162.00;;;;5093820;28;19916;-66
2022/10/12 01:50:14;;;;;;;;;;;20.60;43.20;19.40;102159.00;;;;5073665;28;19927;-66
2022/10/12 01:53:33;;;;;;;;;;;20.60;43.10;19.40;102158.00;;;;5076666;28;19990;-66
2022/10/12 01:56:25;;;;;;;;;;;20.60;43.10;19.40;102153.00;;;;5086771;28;19920;-66
2022/10/12 01:59:36;;;;;;;;;;;20.60;43.10;19.40;102157.00;;;;5075818;28;20007;-66
2022/10/12 02:02:53;;;;;;;;;;;20.60;43.10;19.30;102158.00;;;;5079177;28;20027;-66
2022/10/12 02:06:02;;;;;;;;;;;20.60;43.10;19.30;102159.00;;;;5076681;28;19926;-66
2022/10/12 02:09:23;;;;;;;;;;;20.60;43.10;19.30;102151.00;;;;5088022;27;20451;-66
2022/10/12 02:12:15;;;;;;;;;;;20.60;43.10;19.30;102157.00;;;;5085742;28;19920;-66
2022/10/12 02:15:01;;;;;;;;;;;20.60;43.10;19.30;102148.00;;;;5092983;28;19924;-66
2022/10/12 02:17:47;;;;;;;;;;;20.60;43.10;19.30;102138.00;;;;5089693;28;19920;-66
2022/10/12 02:20:33;;;;;;;;;;;20.50;43.00;19.30;102144.00;;;;5081574;28;19924;-66
2022/10/12 02:23:20;;;;;;;;;;;20.50;43.00;19.30;102132.00;;;;5052974;28;19927;-66
2022/10/12 02:26:07;;;;;;;;;;;20.50;43.00;19.30;102133.00;;;;5071119;28;20515;-66
2022/10/12 02:28:52;;;;;;;;;;;20.50;43.00;19.30;102129.00;;;;5092539;28;19947;-66
2022/10/12 02:31:46;;;;;;;;;;;20.50;43.00;19.30;102129.00;;;;5098820;27;19924;-66
2022/10/12 02:34:35;;;;;;;;;;;20.50;43.00;19.30;102120.00;;;;5077488;28;20216;-66
2022/10/12 02:38:06;;;;;;;;;;;20.50;43.00;19.30;102117.00;;;;5080312;28;20262;-66
2022/10/12 02:40:55;;;;;;;;;;;20.50;43.00;19.30;102122.00;;;;5006895;28;19921;-66
2022/10/12 02:43:43;;;;;;;;;;;20.50;43.00;19.30;102126.00;;;;5085817;28;19915;-66
2022/10/12 02:46:29;;;;;;;;;;;20.50;43.00;19.30;102127.00;;;;5083925;28;19973;-66
2022/10/12 02:49:15;;;;;;;;;;;20.50;43.00;19.30;102126.00;;;;5076037;28;19916;-66
2022/10/12 02:52:02;;;;;;;;;;;20.50;42.90;19.30;102130.00;;;;5085679;28;19917;-66
2022/10/12 02:54:48;;;;;;;;;;;20.50;42.90;19.30;102121.00;;;;5093452;28;20749;-66
2022/10/12 02:57:34;;;;;;;;;;;20.60;43.00;19.30;102114.00;;;;5076357;28;20396;-66
2022/10/12 03:00:20;;;;;;;;;;;20.50;42.90;19.30;102112.00;;;;5084972;28;20440;-66
2022/10/12 03:03:06;;;;;;;;;;;20.60;43.00;19.30;102107.00;;;;5066947;28;19920;-66
2022/10/12 03:05:52;;;;;;;;;;;20.60;43.00;19.30;102103.00;;;;5069402;28;19920;-66
2022/10/12 03:08:38;;;;;;;;;;;20.50;42.90;19.30;102095.00;;;;5088446;28;19960;-66
2022/10/12 03:11:24;;;;;;;;;;;20.50;42.90;19.20;102100.00;;;;5080338;28;20086;-66
2022/10/12 03:14:11;;;;;;;;;;;20.50;42.90;19.20;102103.00;;;;5081264;28;20271;-66
2022/10/12 03:16:57;;;;;;;;;;;20.50;42.90;19.20;102098.00;;;;5067196;28;19959;-66
2022/10/12 03:19:43;;;;;;;;;;;20.50;42.90;19.20;102095.00;;;;5074809;28;20312;-66
2022/10/12 03:22:29;;;;;;;;;;;20.50;42.90;19.20;102087.00;;;;5082562;28;19921;-66
2022/10/12 03:25:15;;;;;;;;;;;20.60;42.90;19.20;102095.00;;;;5085822;28;20337;-66
2022/10/12 03:28:01;;;;;;;;;;;20.50;42.90;19.20;102092.00;;;;5065405;28;19916;-66
2022/10/12 03:30:47;;;;;;;;;;;20.50;42.80;19.20;102091.00;;;;5083155;28;19917;-66
2022/10/12 03:33:33;;;;;;;;;;;20.50;42.80;19.20;102083.00;;;;5077073;28;19921;-66
2022/10/12 03:36:19;;;;;;;;;;;20.50;42.90;19.20;102090.00;;;;5078862;28;19939;-66
2022/10/12 03:39:05;;;;;;;;;;;20.50;42.80;19.20;102090.00;;;;5079423;28;20335;-66
2022/10/12 03:41:51;;;;;;;;;;;20.50;42.80;19.20;102084.00;;;;5078905;28;19935;-66
2022/10/12 03:44:37;;;;;;;;;;;20.40;42.80;19.20;102090.00;;;;5103425;28;19926;-67
2022/10/12 03:47:23;;;;;;;;;;;20.50;42.80;19.20;102092.00;;;;5099226;28;20145;-66
2022/10/12 03:50:09;;;;;;;;;;;20.50;42.80;19.20;102083.00;;;;5102424;28;19915;-66
2022/10/12 03:52:55;;;;;;;;;;;20.50;42.80;19.20;102081.00;;;;5094687;28;19924;-66
2022/10/12 03:55:41;;;;;;;;;;;20.50;42.80;19.20;102077.00;;;;5076546;28;19975;-66
2022/10/12 03:58:27;;;;;;;;;;;20.50;42.80;19.20;102078.00;;;;5076010;28;20290;-66
2022/10/12 04:01:13;;;;;;;;;;;20.50;42.80;19.20;102078.00;;;;5082004;28;20369;-66
2022/10/12 04:03:59;;;;;;;;;;;20.40;42.70;19.20;102067.00;;;;5067212;28;20369;-66
2022/10/12 04:06:45;;;;;;;;;;;20.40;42.70;19.20;102073.00;;;;5079290;28;20266;-66
2022/10/12 04:09:31;;;;;;;;;;;20.50;42.80;19.20;102071.00;;;;5082897;28;19916;-66
2022/10/12 04:12:17;;;;;;;;;;;20.40;42.70;19.20;102074.00;;;;5079230;28;19923;-66
2022/10/12 04:15:03;;;;;;;;;;;20.50;42.70;19.20;102069.00;;;;5081121;28;20339;-66
2022/10/12 04:17:49;;;;;;;;;;;20.40;42.70;19.20;102075.00;;;;5080022;28;19916;-66
2022/10/12 04:20:35;;;;;;;;;;;20.40;42.70;19.10;102068.00;;;;5078759;28;20184;-66
2022/10/12 04:23:21;;;;;;;;;;;20.40;42.70;19.10;102074.00;;;;5091483;28;19925;-66
2022/10/12 04:26:07;;;;;;;;;;;20.40;42.70;19.10;102074.00;;;;5079321;28;19942;-66
2022/10/12 04:28:53;;;;;;;;;;;20.40;42.70;19.10;102066.00;;;;5092206;28;19916;-66
2022/10/12 04:31:39;;;;;;;;;;;20.40;42.70;19.10;102063.00;;;;5074049;28;20250;-67
2022/10/12 04:34:25;;;;;;;;;;;20.40;42.70;19.10;102069.00;;;;5080231;28;19920;-66
2022/10/12 04:37:11;;;;;;;;;;;20.40;42.70;19.10;102066.00;;;;5076416;28;19920;-66
2022/10/12 04:39:57;;;;;;;;;;;20.40;42.70;19.10;102066.00;;;;5099770;28;20278;-66
2022/10/12 04:42:43;;;;;;;;;;;20.40;42.60;19.10;102066.00;;;;5075834;28;19920;-66
2022/10/12 04:45:29;;;;;;;;;;;20.40;42.70;19.10;102065.00;;;;5082614;28;19962;-66
2022/10/12 04:48:15;;;;;;;;;;;20.40;42.70;19.10;102062.00;;;;5081450;28;19916;-66
2022/10/12 04:51:01;;;;;;;;;;;20.40;42.70;19.10;102065.00;;;;5082294;28;19971;-66
2022/10/12 04:53:47;;;;;;;;;;;20.40;42.70;19.10;102062.00;;;;5067430;28;19916;-66
2022/10/12 04:56:33;;;;;;;;;;;20.40;42.60;19.10;102064.00;;;;5077739;28;19920;-66
2022/10/12 04:59:19;;;;;;;;;;;20.40;43.30;19.10;102071.00;;;;5078835;28;19920;-66
2022/10/12 05:02:05;;;;;;;;;;;20.40;42.60;19.10;102066.00;;;;5061026;28;19928;-66
2022/10/12 05:04:51;;;;;;;;;;;20.40;42.60;19.10;102058.00;;;;5081769;28;20354;-66
2022/10/12 05:07:37;;;;;;;;;;;20.40;42.60;19.10;102056.00;;;;5079425;28;19938;-66
2022/10/12 05:10:23;;;;;;;;;;;20.30;42.60;19.10;102052.00;;;;5079137;28;19917;-66
2022/10/12 05:13:09;;;;;;;;;;;20.40;42.70;19.10;102056.00;;;;5078731;28;20357;-66
2022/10/12 05:15:55;;;;;;;;;;;20.40;42.60;19.10;102057.00;;;;5076711;28;19920;-66
2022/10/12 05:18:41;;;;;;;;;;;20.30;42.50;19.00;102046.00;;;;5080915;28;19989;-66
2022/10/12 05:21:27;;;;;;;;;;;20.30;42.50;19.00;102045.00;;;;5076072;28;19924;-66
2022/10/12 05:24:13;;;;;;;;;;;20.30;42.60;19.00;102045.00;;;;5074698;28;19970;-66
2022/10/12 05:26:59;;;;;;;;;;;20.30;42.50;19.00;102045.00;;;;5078792;28;20211;-66
2022/10/12 05:29:45;;;;;;;;;;;20.30;42.50;19.00;102043.00;;;;5079840;28;20305;-66
2022/10/12 05:32:31;;;;;;;;;;;20.30;42.50;19.00;102049.00;;;;5074762;28;19975;-66
2022/10/12 05:35:17;;;;;;;;;;;20.30;43.20;19.00;102049.00;;;;5077808;28;19920;-66
2022/10/12 05:38:03;;;;;;;;;;;20.30;42.50;19.00;102047.00;;;;5068750;28;19926;-66
2022/10/12 05:40:49;;;;;;;;;;;20.30;42.50;19.00;102055.00;;;;5078634;28;19916;-66
2022/10/12 05:43:35;;;;;;;;;;;20.20;42.50;19.00;102042.00;;;;5090370;27;19916;-66
2022/10/12 05:46:21;;;;;;;;;;;20.30;42.50;19.00;102052.00;;;;5077766;28;19920;-66
2022/10/12 05:49:07;;;;;;;;;;;20.30;42.50;19.00;102055.00;;;;5085193;28;19921;-66
2022/10/12 05:51:53;;;;;;;;;;;20.30;42.50;19.00;102050.00;;;;5078711;28;19920;-66
2022/10/12 05:54:39;;;;;;;;;;;20.30;42.50;19.00;102049.00;;;;5084006;28;20133;-66
2022/10/12 05:57:25;;;;;;;;;;;20.30;42.50;19.00;102048.00;;;;5081061;28;19928;-66
2022/10/12 06:00:11;;;;;;;;;;;20.30;42.50;19.00;102047.00;;;;5079604;28;19924;-66
2022/10/12 06:02:57;;;;;;;;;;;20.30;42.50;19.00;102052.00;;;;5083623;28;19921;-66
2022/10/12 06:05:43;;;;;;;;;;;20.20;42.50;19.00;102049.00;;;;5080706;28;19916;-66
2022/10/12 06:08:29;;;;;;;;;;;20.30;42.50;19.00;102061.00;;;;5083706;28;19926;-66
2022/10/12 06:11:15;;;;;;;;;;;20.20;42.40;19.00;102062.00;;;;5096527;27;20324;-66
2022/10/12 06:14:01;;;;;;;;;;;20.20;42.50;19.00;102054.00;;;;5076846;28;20278;-66
2022/10/12 06:16:48;;;;;;;;;;;20.30;42.50;19.00;102056.00;;;;5084795;28;19919;-66
2022/10/12 06:19:34;;;;;;;;;;;20.20;42.50;19.00;102054.00;;;;5082586;28;19996;-66
2022/10/12 06:22:20;;;;;;;;;;;20.20;42.40;19.00;102054.00;;;;5081324;28;19970;-66
2022/10/12 06:25:07;;;;;;;;;;;20.30;42.50;18.90;102052.00;;;;5081230;28;19923;-66
2022/10/12 06:27:53;;;;;;;;;;;20.20;42.50;18.90;102044.00;;;;5073408;28;19956;-66
2022/10/12 06:30:38;;;;;;;;;;;20.20;42.50;19.00;102050.00;;;;5081242;28;20424;-66
2022/10/12 06:33:25;;;;;;;;;;;20.20;42.40;18.90;102054.00;;;;5090229;28;19919;-66
2022/10/12 06:36:11;;;;;;;;;;;20.20;42.40;18.90;102052.00;;;;5094111;27;19916;-66
2022/10/12 06:38:57;;;;;;;;;;;20.20;42.50;18.90;102054.00;;;;5075357;28;20053;-66
2022/10/12 06:41:43;;;;;;;;;;;20.20;42.40;18.90;102054.00;;;;5082498;28;19920;-66
2022/10/12 06:44:31;;;;;;;;;;;20.20;42.40;18.90;102055.00;;;;5081686;28;20128;-67
2022/10/12 06:47:17;;;;;;;;;;;20.20;42.40;18.90;102051.00;;;;5065369;28;19917;-67
2022/10/12 06:50:03;;;;;;;;;;;20.20;42.40;18.90;102050.00;;;;5077526;28;20459;-66
2022/10/12 06:52:49;;;;;;;;;;;20.20;42.40;18.90;102058.00;;;;5076316;28;20293;-66
2022/10/12 06:55:38;;;;;;;;;;;20.20;42.40;18.90;102044.00;;;;5098793;27;19932;-66
2022/10/12 06:58:24;;;;;;;;;;;20.20;42.40;18.90;102048.00;;;;5082657;28;19917;-66
2022/10/12 07:01:10;;;;;;;;;;;20.20;42.40;18.90;102059.00;;;;5077343;28;19924;-66
2022/10/12 07:03:56;;;;;;;;;;;20.20;42.40;18.90;102054.00;;;;5080430;28;19916;-66
2022/10/12 07:06:42;;;;;;;;;;;20.20;42.40;18.90;102052.00;;;;5091247;28;19916;-66
2022/10/12 07:09:28;;;;;;;;;;;20.20;42.40;18.90;102055.00;;;;5074684;28;19966;-66
2022/10/12 07:12:14;;;;;;;;;;;20.20;43.10;18.90;102044.00;;;;5083560;28;19967;-66
2022/10/12 07:15:00;;;;;;;;;;;20.20;42.40;18.90;102043.00;;;;5078432;28;19980;-66
2022/10/12 07:17:46;;;;;;;;;;;20.20;42.40;18.90;102035.00;;;;5081142;28;19981;-66
2022/10/12 07:20:32;;;;;;;;;;;20.20;42.40;18.90;102049.00;;;;5082845;28;19923;-66
2022/10/12 07:23:18;;;;;;;;;;;20.20;42.40;18.90;102051.00;;;;5082785;28;19959;-66
2022/10/12 07:26:04;;;;;;;;;;;20.20;42.40;18.90;102048.00;;;;5085611;28;20161;-66
2022/10/12 07:28:50;;;;;;;;;;;20.20;42.40;18.90;102042.00;;;;5058546;28;19917;-66
2022/10/12 07:31:36;;;;;;;;;;;20.20;42.40;18.90;102041.00;;;;5085866;28;19924;-66
2022/10/12 07:34:22;;;;;;;;;;;20.20;42.40;18.90;102043.00;;;;5096297;27;19916;-66
2022/10/12 07:37:08;;;;;;;;;;;20.20;42.40;18.90;102042.00;;;;5079637;28;19920;-66
2022/10/12 07:39:56;;;;;;;;;;;20.30;42.40;18.90;102046.00;;;;5076344;28;19923;-66
2022/10/12 07:42:42;;;;;;;;;;;20.30;42.40;18.90;102056.00;;;;5078398;28;20015;-66
2022/10/12 07:45:28;;;;;;;;;;;20.30;42.40;18.90;102051.00;;;;5087615;28;20054;-66
2022/10/12 07:48:14;;;;;;;;;;;20.30;42.40;19.00;102051.00;;;;5078540;28;19995;-66
2022/10/12 07:51:07;;;;;;;;;;;20.30;42.40;19.00;102046.00;;;;5085020;28;19926;-66
2022/10/12 07:53:53;;;;;;;;;;;20.30;42.40;19.00;102049.00;;;;5082220;28;19922;-66
2022/10/12 07:56:39;;;;;;;;;;;20.30;42.40;19.00;102050.00;;;;5088972;27;19916;-66
2022/10/12 07:59:25;;;;;;;;;;;20.30;42.40;19.00;102046.00;;;;5081455;28;19943;-65
2022/10/12 08:02:11;;;;;;;;;;;20.30;42.40;19.00;102044.00;;;;5080242;28;19920;-65
2022/10/12 08:04:57;;;;;;;;;;;20.30;42.40;19.00;102038.00;;;;5077864;28;19960;-66
2022/10/12 08:07:43;;;;;;;;;;;20.30;42.40;19.00;102053.00;;;;5082490;28;19958;-66
2022/10/12 08:10:29;;;;;;;;;;;20.30;42.40;19.00;102054.00;;;;5078278;28;19935;-66
2022/10/12 08:13:15;;;;;;;;;;;20.40;42.50;19.00;102050.00;;;;5083477;28;20443;-66
2022/10/12 08:16:02;;;;;;;;;;;20.40;42.40;19.00;102049.00;;;;5073691;28;20432;-66
2022/10/12 08:18:48;;;;;;;;;;;20.40;42.40;19.00;102051.00;;;;5077742;28;19924;-66
2022/10/12 08:21:34;;;;;;;;;;;20.50;42.50;19.00;102041.00;;;;5083779;28;19920;-66
2022/10/12 08:24:20;;;;;;;;;;;20.40;42.40;19.00;102049.00;;;;5078708;28;19962;-66
2022/10/12 08:27:06;;;;;;;;;;;20.40;42.40;19.10;102050.00;;;;5079349;28;20420;-66
2022/10/12 08:29:52;;;;;;;;;;;20.40;42.40;19.10;102044.00;;;;5079085;28;19920;-66
2022/10/12 08:32:38;;;;;;;;;;;20.40;42.40;19.10;102050.00;;;;5075955;28;19919;-66
2022/10/12 08:35:24;;;;;;;;;;;20.40;42.40;19.10;102046.00;;;;5079645;28;19970;-66
2022/10/12 08:38:11;;;;;;;;;;;20.50;42.40;19.10;102039.00;;;;5073676;28;19924;-66
2022/10/12 08:41:17;;;;;;;;;;;20.40;42.40;19.10;102039.00;;;;5079352;28;20432;-66
2022/10/12 08:44:38;;;;;;;;;;;20.50;42.50;19.10;102037.00;;;;5095252;28;19949;-66
2022/10/12 08:47:35;;;;;;;;;;;20.50;42.40;19.10;102037.00;;;;5084743;28;20022;-66
2022/10/12 08:50:41;;;;;;;;;;;20.50;42.40;19.10;102037.00;;;;5075770;28;20313;-66
2022/10/12 08:53:47;;;;;;;;;;;20.50;42.40;19.10;102029.00;;;;5077194;28;20252;-66
2022/10/12 08:56:34;;;;;;;;;;;20.50;42.40;19.10;102026.00;;;;5088868;28;20007;-66
2022/10/12 08:59:20;;;;;;;;;;;20.50;42.40;19.10;102018.00;;;;5091574;27;19917;-66
2022/10/12 09:02:21;;;;;;;;;;;20.50;42.40;19.10;102026.00;;;;5052032;28;19920;-66
2022/10/12 09:05:14;;;;;;;;;;;20.50;42.40;19.20;102019.00;;;;5085042;28;20318;-66
2022/10/12 09:08:06;;;;;;;;;;;20.50;42.50;19.20;102014.00;;;;5086363;28;19927;-66
2022/10/12 09:10:55;;;;;;;;;;;20.50;42.40;19.20;102013.00;;;;5083958;28;20385;-66
2022/10/12 09:13:49;;;;;;;;;;;20.50;42.40;19.20;102013.00;;;;5077926;28;19919;-66
2022/10/12 09:16:39;;;;;;;;;;;20.60;42.50;19.20;102012.00;;;;5077320;28;19920;-66
2022/10/12 09:19:36;;;;;;;;;;;20.60;42.50;19.20;102011.00;;;;5076927;28;19921;-66
2022/10/12 09:22:22;;;;;;;;;;;20.60;42.50;19.20;102018.00;;;;5061393;28;20544;-66
2022/10/12 09:25:11;;;;;;;;;;;20.60;42.40;19.20;102018.00;;;;5072963;28;19920;-66
2022/10/12 09:28:14;;;;;;;;;;;20.60;42.40;19.20;102016.00;;;;5075483;28;20393;-66
2022/10/12 09:31:20;;;;;;;;;;;20.60;42.40;19.20;102022.00;;;;5073339;28;19921;-66
2022/10/12 09:34:07;;;;;;;;;;;20.70;42.50;19.20;102019.00;;;;5078130;28;19943;-66
2022/10/12 09:36:54;;;;;;;;;;;20.60;42.40;19.20;102020.00;;;;5090214;28;19916;-66
2022/10/12 09:39:40;;;;;;;;;;;20.60;42.40;19.30;102011.00;;;;5074787;28;19927;-66
2022/10/12 09:42:26;;;;;;;;;;;20.60;42.40;19.30;102014.00;;;;5095850;28;19927;-66
2022/10/12 09:45:15;;;;;;;;;;;20.60;42.40;19.30;102014.00;;;;5074987;28;19924;-67
2022/10/12 09:48:12;;;;;;;;;;;20.70;42.50;19.30;102011.00;;;;5073790;28;19927;-67
2022/10/12 09:51:02;;;;;;;;;;;20.70;42.40;19.30;102011.00;;;;5077431;28;20383;-67
2022/10/12 09:53:48;;;;;;;;;;;20.70;42.50;19.30;102017.00;;;;5073962;28;20011;-66
2022/10/12 09:56:54;;;;;;;;;;;20.70;42.50;19.30;102011.00;;;;5083849;28;19924;-67
2022/10/12 09:59:42;;;;;;;;;;;20.70;42.50;19.30;102009.00;;;;5066569;28;19915;-67
2022/10/12 10:02:28;;;;;;;;;;;20.70;42.50;19.30;102007.00;;;;5087718;28;20270;-67
2022/10/12 10:05:36;;;;;;;;;;;20.70;42.50;19.30;102003.00;;;;5079261;28;19928;-67
2022/10/12 10:08:22;;;;;;;;;;;20.70;42.50;19.30;102009.00;;;;5077746;28;19931;-67
2022/10/12 10:11:17;;;;;;;;;;;20.70;42.50;19.30;101994.00;;;;5074985;28;20361;-67
2022/10/12 10:14:03;;;;;;;;;;;20.70;42.50;19.30;101984.00;;;;5087029;28;19917;-67
2022/10/12 10:16:50;;;;;;;;;;;20.70;42.50;19.30;101996.00;;;;5079903;28;19924;-67
2022/10/12 10:19:36;;;;;;;;;;;20.70;42.50;19.30;101992.00;;;;5068005;28;19974;-67
2022/10/12 10:22:22;;;;;;;;;;;20.70;42.50;19.30;101996.00;;;;5075212;28;19924;-67
2022/10/12 10:25:17;;;;;;;;;;;20.70;42.50;19.30;101998.00;;;;5043142;28;20029;-67
2022/10/12 10:28:22;;;;;;;;;;;20.70;42.50;19.30;102002.00;;;;5089056;28;19917;-67
2022/10/12 10:31:11;;;;;;;;;;;20.80;42.50;19.40;102005.00;;;;5092738;27;19932;-67
2022/10/12 10:34:06;;;;;;;;;;;20.80;42.50;19.30;102001.00;;;;5080354;28;19924;-67
2022/10/12 10:36:53;;;;;;;;;;;20.80;42.50;19.40;101999.00;;;;5079799;28;19921;-67
2022/10/12 10:39:45;;;;;;;;;;;20.80;42.50;19.40;101991.00;;;;5095093;28;20002;-67
2022/10/12 10:42:31;;;;;;;;;;;20.80;42.60;19.40;101997.00;;;;5089788;28;19928;-67
2022/10/12 10:45:27;;;;;;;;;;;20.80;42.50;19.40;102001.00;;;;5089529;28;19951;-67
2022/10/12 10:48:15;;;;;;;;;;;20.80;42.50;19.40;101991.00;;;;5081505;28;19916;-67
2022/10/12 10:51:04;;;;;;;;;;;20.80;42.60;19.40;102003.00;;;;5091301;27;19963;-67
2022/10/12 10:53:50;;;;;;;;;;;20.80;42.60;19.40;101984.00;;;;5066271;28;19916;-67
2022/10/12 10:56:36;;;;;;;;;;;20.80;42.60;19.40;101983.00;;;;5081463;28;19923;-67
2022/10/12 10:59:52;;;;;;;;;;;20.80;42.60;19.40;101983.00;;;;5079125;28;19966;-67
2022/10/12 11:02:43;;;;;;;;;;;20.80;42.60;19.40;101974.00;;;;5080615;28;19930;-67
2022/10/12 11:05:32;;;;;;;;;;;20.80;42.60;19.40;101972.00;;;;5082406;28;19924;-67
2022/10/12 11:08:25;;;;;;;;;;;20.80;42.60;19.40;101975.00;;;;5069352;28;19928;-67
2022/10/12 11:11:18;;;;;;;;;;;20.80;42.60;19.40;101968.00;;;;5063646;28;19921;-67
2022/10/12 11:14:13;;;;;;;;;;;20.80;42.60;19.40;101967.00;;;;5081903;28;19947;-67
2022/10/12 11:17:12;;;;;;;;;;;20.80;42.60;19.40;101968.00;;;;5090555;27;19916;-67
2022/10/12 11:20:26;;;;;;;;;;;20.80;42.60;19.40;101958.00;;;;5072678;28;19924;-67
2022/10/12 11:23:19;;;;;;;;;;;20.80;42.60;19.40;101953.00;;;;5098407;27;20065;-67
2022/10/12 11:26:17;;;;;;;;;;;20.90;42.70;19.40;101960.00;;;;5068561;28;19945;-67
2022/10/12 11:29:03;;;;;;;;;;;20.90;42.70;19.40;101951.00;;;;5092024;28;19920;-67
2022/10/12 11:32:03;;;;;;;;;;;20.90;42.70;19.40;101950.00;;;;5092303;28;19916;-67
2022/10/12 11:34:51;;;;;;;;;;;20.90;42.70;19.40;101943.00;;;;5079980;28;19916;-67
2022/10/12 11:37:41;;;;;;;;;;;20.90;42.70;19.50;101943.00;;;;5088944;27;19923;-67
2022/10/12 11:40:32;;;;;;;;;;;21.00;42.70;19.50;101929.00;;;;5080445;28;19927;-67
2022/10/12 11:43:22;;;;;;;;;;;20.90;42.70;19.50;101935.00;;;;5089603;28;20030;-67
2022/10/12 11:46:10;;;;;;;;;;;20.90;42.70;19.50;101927.00;;;;5052895;28;19924;-67
2022/10/12 11:49:00;;;;;;;;;;;20.90;42.70;19.50;101926.00;;;;5081393;28;19982;-67
2022/10/12 11:51:46;;;;;;;;;;;20.90;42.70;19.50;101914.00;;;;5090738;28;20258;-67
2022/10/12 11:54:44;;;;;;;;;;;20.90;42.60;19.50;101922.00;;;;5064305;28;20316;-67
2022/10/12 11:57:32;;;;;;;;;;;20.90;42.70;19.50;101912.00;;;;5089599;28;20343;-67
2022/10/12 12:00:23;;;;;;;;;;;20.90;42.60;19.50;101918.00;;;;5046492;28;20317;-67
2022/10/12 12:03:20;;;;;;;;;;;21.00;42.70;19.50;101907.00;;;;5092781;27;19932;-67
2022/10/12 12:06:28;;;;;;;;;;;20.90;42.60;19.50;101909.00;;;;5088475;28;20015;-67
2022/10/12 12:09:19;;;;;;;;;;;21.00;42.70;19.50;101912.00;;;;5086110;28;19991;-67
2022/10/12 12:12:23;;;;;;;;;;;20.90;42.60;19.50;101901.00;;;;5088881;28;19990;-67
2022/10/12 12:15:19;;;;;;;;;;;21.00;42.70;19.50;101907.00;;;;5086010;28;19927;-67
2022/10/12 12:18:16;;;;;;;;;;;21.00;42.70;19.60;101903.00;;;;5078532;28;19916;-67
2022/10/12 12:21:06;;;;;;;;;;;21.00;42.60;19.60;101907.00;;;;5085396;28;19924;-66
2022/10/12 12:23:53;;;;;;;;;;;21.00;42.60;19.60;101904.00;;;;5090219;28;19928;-67
2022/10/12 12:26:39;;;;;;;;;;;21.00;42.60;19.60;101899.00;;;;5067896;28;20307;-67
2022/10/12 12:29:26;;;;;;;;;;;21.00;42.70;19.60;101902.00;;;;5082864;28;20431;-67
2022/10/12 12:32:12;;;;;;;;;;;21.00;42.60;19.60;101892.00;;;;5092487;27;19919;-67
2022/10/12 12:34:58;;;;;;;;;;;21.00;42.60;19.60;101887.00;;;;5076950;28;20352;-67
2022/10/12 12:37:44;;;;;;;;;;;21.00;42.60;19.60;101878.00;;;;5085871;27;19916;-67
2022/10/12 12:40:30;;;;;;;;;;;21.00;42.60;19.60;101879.00;;;;5081063;28;20301;-67
2022/10/12 12:43:28;;;;;;;;;;;21.20;42.80;19.60;101882.00;;;;5076590;28;19920;-67
2022/10/12 12:46:14;;;;;;;;;;;21.10;42.70;19.60;101875.00;;;;5080019;28;20278;-67
2022/10/12 12:49:00;;;;;;;;;;;21.10;42.70;19.60;101874.00;;;;5051698;28;19920;-67
2022/10/12 12:51:46;;;;;;;;;;;21.10;42.70;19.60;101870.00;;;;5075899;28;19923;-67
2022/10/12 12:54:32;;;;;;;;;;;21.10;42.60;19.60;101864.00;;;;5075017;28;19946;-67
2022/10/12 12:57:25;;;;;;;;;;;21.10;42.60;19.60;101864.00;;;;5077933;28;19920;-67
2022/10/12 13:00:17;;;;;;;;;;;21.10;42.60;19.60;101851.00;;;;5064816;28;19920;-67
2022/10/12 13:03:26;;;;;;;;;;;21.10;42.70;19.70;101857.00;;;;5081273;28;20357;-67
2022/10/12 13:06:43;;;;;;;;;;;21.10;42.60;19.60;101853.00;;;;5076269;28;19916;-66
2022/10/12 13:09:53;;;;;;;;;;;21.10;42.60;19.70;101860.00;;;;5094215;27;19920;-67
2022/10/12 13:12:51;;;;;;;;;;;21.10;42.60;19.70;101845.00;;;;5091312;27;19939;-67
2022/10/12 13:15:46;;;;;;;;;;;21.10;42.70;19.70;101844.00;;;;5081447;28;20003;-67
2022/10/12 13:18:48;;;;;;;;;;;21.10;42.60;19.70;101835.00;;;;5079224;28;19920;-68
2022/10/12 13:21:39;;;;;;;;;;;21.10;42.60;19.70;101835.00;;;;5092051;28;19920;-67
2022/10/12 13:24:36;;;;;;;;;;;21.20;42.70;19.70;101833.00;;;;5078212;28;19920;-68
2022/10/12 13:27:32;;;;;;;;;;;21.20;42.70;19.70;101823.00;;;;5067582;28;19924;-68
2022/10/12 13:30:29;;;;;;;;;;;21.20;42.70;19.70;101826.00;;;;5049547;28;19928;-68
2022/10/12 13:33:38;;;;;;;;;;;21.20;42.70;19.70;101824.00;;;;5062310;28;20401;-68
2022/10/12 13:36:28;;;;;;;;;;;21.10;42.60;19.70;101828.00;;;;5092353;28;19995;-68
2022/10/12 13:39:17;;;;;;;;;;;21.10;42.60;19.70;101823.00;;;;5081083;28;19946;-68
2022/10/12 13:42:03;;;;;;;;;;;21.10;42.60;19.70;101828.00;;;;5087194;28;19927;-68